sensor_id;sensor_type;location;lat;lon;timestamp;pressure;altitude;pressure_sealevel;temperature;humidity
48888;BME280;42598;53.802;-1.632;2023-03-15T00:01:27;100430.42;;;1.84;72.16
48888;BME280;42598;53.802;-1.632;2023-03-15T00:03:54;100440.57;;;1.91;73.35
48888;BME280;42598;53.802;-1.632;2023-03-15T00:06:21;100442.61;;;1.60;73.24
48888;BME280;42598;53.802;-1.632;2023-03-15T00:08:48;100446.09;;;1.41;72.72
48888;BME280;42598;53.802;-1.632;2023-03-15T00:11:16;100444.25;;;2.08;70.83
48888;BME280;42598;53.802;-1.632;2023-03-15T00:13:45;100440.09;;;2.41;70.45
48888;BME280;42598;53.802;-1.632;2023-03-15T00:16:12;100431.20;;;2.16;70.88
48888;BME280;42598;53.802;-1.632;2023-03-15T00:18:39;100431.66;;;2.81;67.92
48888;BME280;42598;53.802;-1.632;2023-03-15T00:21:07;100432.16;;;1.88;67.86
48888;BME280;42598;53.802;-1.632;2023-03-15T00:23:34;100439.10;;;2.44;67.34
48888;BME280;42598;53.802;-1.632;2023-03-15T00:26:02;100439.26;;;1.28;71.83
48888;BME280;42598;53.802;-1.632;2023-03-15T00:28:30;100440.93;;;1.87;69.78
48888;BME280;42598;53.802;-1.632;2023-03-15T00:31:06;100443.10;;;1.99;69.68
48888;BME280;42598;53.802;-1.632;2023-03-15T00:33:34;100446.69;;;1.82;69.48
48888;BME280;42598;53.802;-1.632;2023-03-15T00:36:03;100447.76;;;1.67;70.07
48888;BME280;42598;53.802;-1.632;2023-03-15T00:38:31;100455.08;;;-0.34;76.34
48888;BME280;42598;53.802;-1.632;2023-03-15T00:41:03;100451.72;;;-0.42;78.18
48888;BME280;42598;53.802;-1.632;2023-03-15T00:43:30;100453.29;;;0.99;75.54
48888;BME280;42598;53.802;-1.632;2023-03-15T00:45:57;100458.83;;;0.75;75.05
48888;BME280;42598;53.802;-1.632;2023-03-15T00:48:30;100459.25;;;1.38;73.62
48888;BME280;42598;53.802;-1.632;2023-03-15T00:51:06;100464.04;;;0.79;75.83
48888;BME280;42598;53.802;-1.632;2023-03-15T00:53:35;100467.71;;;0.84;73.07
48888;BME280;42598;53.802;-1.632;2023-03-15T00:56:04;100475.86;;;1.32;73.36
48888;BME280;42598;53.802;-1.632;2023-03-15T00:58:32;100485.58;;;1.64;71.56
48888;BME280;42598;53.802;-1.632;2023-03-15T01:00:59;100492.64;;;1.49;69.59
48888;BME280;42598;53.802;-1.632;2023-03-15T01:03:27;100497.13;;;0.60;72.86
48888;BME280;42598;53.802;-1.632;2023-03-15T01:05:54;100503.04;;;0.91;75.36
48888;BME280;42598;53.802;-1.632;2023-03-15T01:08:21;100503.98;;;0.61;74.52
48888;BME280;42598;53.802;-1.632;2023-03-15T01:10:49;100506.98;;;0.71;73.28
48888;BME280;42598;53.802;-1.632;2023-03-15T01:13:16;100509.96;;;0.89;74.00
48888;BME280;42598;53.802;-1.632;2023-03-15T01:15:45;100503.94;;;1.47;72.30
48888;BME280;42598;53.802;-1.632;2023-03-15T01:18:12;100509.31;;;1.08;71.06
48888;BME280;42598;53.802;-1.632;2023-03-15T01:20:42;100520.49;;;1.06;70.52
48888;BME280;42598;53.802;-1.632;2023-03-15T01:23:09;100524.78;;;0.92;72.39
48888;BME280;42598;53.802;-1.632;2023-03-15T01:25:36;100528.91;;;0.84;74.52
48888;BME280;42598;53.802;-1.632;2023-03-15T01:28:03;100530.12;;;0.56;73.05
48888;BME280;42598;53.802;-1.632;2023-03-15T01:30:31;100530.63;;;1.12;72.69
48888;BME280;42598;53.802;-1.632;2023-03-15T01:32:58;100533.04;;;0.52;74.76
48888;BME280;42598;53.802;-1.632;2023-03-15T01:35:26;100539.69;;;0.40;77.14
48888;BME280;42598;53.802;-1.632;2023-03-15T01:37:53;100541.53;;;0.74;75.17
48888;BME280;42598;53.802;-1.632;2023-03-15T01:40:21;100542.64;;;0.32;72.37
48888;BME280;42598;53.802;-1.632;2023-03-15T01:43:13;100542.16;;;1.06;71.99
48888;BME280;42598;53.802;-1.632;2023-03-15T01:46:02;100541.38;;;1.23;70.78
48888;BME280;42598;53.802;-1.632;2023-03-15T01:48:34;100540.28;;;0.78;72.85
48888;BME280;42598;53.802;-1.632;2023-03-15T01:51:06;100545.05;;;0.51;73.12
48888;BME280;42598;53.802;-1.632;2023-03-15T01:53:37;100549.52;;;0.54;73.12
48888;BME280;42598;53.802;-1.632;2023-03-15T01:56:05;100549.05;;;0.38;75.54
48888;BME280;42598;53.802;-1.632;2023-03-15T01:58:34;100550.12;;;0.03;76.49
48888;BME280;42598;53.802;-1.632;2023-03-15T02:01:01;100546.78;;;0.11;76.07
48888;BME280;42598;53.802;-1.632;2023-03-15T02:03:32;100545.14;;;0.86;74.52
48888;BME280;42598;53.802;-1.632;2023-03-15T02:06:05;100543.96;;;0.78;73.80
48888;BME280;42598;53.802;-1.632;2023-03-15T02:08:37;100542.11;;;-0.28;73.59
48888;BME280;42598;53.802;-1.632;2023-03-15T02:11:05;100539.19;;;0.16;73.40
48888;BME280;42598;53.802;-1.632;2023-03-15T02:13:33;100544.13;;;-0.44;74.99
48888;BME280;42598;53.802;-1.632;2023-03-15T02:16:01;100542.84;;;-0.01;75.55
48888;BME280;42598;53.802;-1.632;2023-03-15T02:18:28;100538.94;;;-0.77;76.86
48888;BME280;42598;53.802;-1.632;2023-03-15T02:21:02;100541.62;;;-0.56;78.22
48888;BME280;42598;53.802;-1.632;2023-03-15T02:23:30;100543.27;;;0.32;72.13
48888;BME280;42598;53.802;-1.632;2023-03-15T02:26:01;100544.95;;;0.40;72.47
48888;BME280;42598;53.802;-1.632;2023-03-15T02:28:34;100538.57;;;-0.32;75.82
48888;BME280;42598;53.802;-1.632;2023-03-15T02:31:01;100544.90;;;-0.73;75.21
48888;BME280;42598;53.802;-1.632;2023-03-15T02:33:30;100541.05;;;-0.38;73.52
48888;BME280;42598;53.802;-1.632;2023-03-15T02:36:07;100537.77;;;0.55;70.62
48888;BME280;42598;53.802;-1.632;2023-03-15T02:38:34;100538.14;;;-0.81;74.95
48888;BME280;42598;53.802;-1.632;2023-03-15T02:41:02;100535.82;;;-0.82;78.73
48888;BME280;42598;53.802;-1.632;2023-03-15T02:43:30;100540.99;;;-1.75;78.19
48888;BME280;42598;53.802;-1.632;2023-03-15T02:45:59;100542.42;;;-0.21;75.23
48888;BME280;42598;53.802;-1.632;2023-03-15T02:48:28;100538.30;;;0.23;72.84
48888;BME280;42598;53.802;-1.632;2023-03-15T02:50:57;100540.96;;;0.62;69.98
48888;BME280;42598;53.802;-1.632;2023-03-15T02:53:24;100536.81;;;0.27;71.78
48888;BME280;42598;53.802;-1.632;2023-03-15T02:55:51;100532.35;;;-0.17;72.57
48888;BME280;42598;53.802;-1.632;2023-03-15T02:58:19;100532.45;;;0.28;73.06
48888;BME280;42598;53.802;-1.632;2023-03-15T03:00:46;100537.34;;;-0.08;72.86
48888;BME280;42598;53.802;-1.632;2023-03-15T03:03:12;100537.13;;;-0.37;71.93
48888;BME280;42598;53.802;-1.632;2023-03-15T03:05:40;100541.89;;;-0.96;76.24
48888;BME280;42598;53.802;-1.632;2023-03-15T03:08:07;100543.28;;;-0.91;75.86
48888;BME280;42598;53.802;-1.632;2023-03-15T03:10:39;100544.99;;;-0.81;74.95
48888;BME280;42598;53.802;-1.632;2023-03-15T03:13:07;100546.44;;;-1.39;76.75
48888;BME280;42598;53.802;-1.632;2023-03-15T03:15:34;100546.95;;;-1.11;74.95
48888;BME280;42598;53.802;-1.632;2023-03-15T03:18:02;100544.85;;;-0.52;73.75
48888;BME280;42598;53.802;-1.632;2023-03-15T03:20:28;100544.78;;;-1.34;76.85
48888;BME280;42598;53.802;-1.632;2023-03-15T03:22:55;100539.08;;;-0.57;75.30
48888;BME280;42598;53.802;-1.632;2023-03-15T03:25:23;100537.42;;;-1.19;77.58
48888;BME280;42598;53.802;-1.632;2023-03-15T03:27:49;100538.59;;;-0.65;75.76
48888;BME280;42598;53.802;-1.632;2023-03-15T03:30:17;100536.32;;;-1.32;76.15
48888;BME280;42598;53.802;-1.632;2023-03-15T03:32:44;100539.13;;;-1.44;77.88
48888;BME280;42598;53.802;-1.632;2023-03-15T03:35:11;100535.44;;;-1.46;79.23
48888;BME280;42598;53.802;-1.632;2023-03-15T03:37:39;100531.75;;;-1.13;76.86
48888;BME280;42598;53.802;-1.632;2023-03-15T03:40:07;100534.21;;;-1.32;76.87
48888;BME280;42598;53.802;-1.632;2023-03-15T03:42:35;100533.37;;;-1.61;77.22
48888;BME280;42598;53.802;-1.632;2023-03-15T03:45:02;100533.99;;;-1.13;77.31
48888;BME280;42598;53.802;-1.632;2023-03-15T03:47:30;100535.26;;;-0.91;74.99
48888;BME280;42598;53.802;-1.632;2023-03-15T03:49:57;100537.78;;;-0.61;74.86
48888;BME280;42598;53.802;-1.632;2023-03-15T03:52:24;100531.30;;;-0.40;74.30
48888;BME280;42598;53.802;-1.632;2023-03-15T03:54:52;100536.81;;;-1.00;75.98
48888;BME280;42598;53.802;-1.632;2023-03-15T03:57:19;100541.42;;;-1.48;77.24
48888;BME280;42598;53.802;-1.632;2023-03-15T03:59:46;100540.69;;;-1.74;78.30
48888;BME280;42598;53.802;-1.632;2023-03-15T04:02:13;100543.11;;;-1.66;76.76
48888;BME280;42598;53.802;-1.632;2023-03-15T04:04:40;100538.94;;;-1.97;75.31
48888;BME280;42598;53.802;-1.632;2023-03-15T04:07:08;100545.08;;;-1.62;76.18
48888;BME280;42598;53.802;-1.632;2023-03-15T04:09:35;100548.22;;;-1.37;74.59
48888;BME280;42598;53.802;-1.632;2023-03-15T04:12:03;100553.89;;;-1.47;75.98
48888;BME280;42598;53.802;-1.632;2023-03-15T04:14:30;100549.10;;;-1.69;77.89
48888;BME280;42598;53.802;-1.632;2023-03-15T04:16:58;100556.28;;;-1.03;74.99
48888;BME280;42598;53.802;-1.632;2023-03-15T04:19:25;100551.20;;;-1.53;76.81
48888;BME280;42598;53.802;-1.632;2023-03-15T04:21:52;100552.99;;;-1.03;73.05
48888;BME280;42598;53.802;-1.632;2023-03-15T04:24:20;100554.19;;;-0.14;70.61
48888;BME280;42598;53.802;-1.632;2023-03-15T04:26:47;100552.32;;;-0.56;70.99
48888;BME280;42598;53.802;-1.632;2023-03-15T04:29:14;100542.98;;;-1.67;73.11
48888;BME280;42598;53.802;-1.632;2023-03-15T04:31:42;100533.19;;;-1.16;74.12
48888;BME280;42598;53.802;-1.632;2023-03-15T04:34:08;100531.77;;;-1.20;74.75
48888;BME280;42598;53.802;-1.632;2023-03-15T04:36:35;100533.02;;;-1.44;73.24
48888;BME280;42598;53.802;-1.632;2023-03-15T04:39:03;100536.35;;;-1.46;72.69
48888;BME280;42598;53.802;-1.632;2023-03-15T04:41:31;100534.02;;;-1.52;72.37
48888;BME280;42598;53.802;-1.632;2023-03-15T04:43:58;100537.84;;;-1.99;75.61
48888;BME280;42598;53.802;-1.632;2023-03-15T04:46:25;100532.73;;;-1.24;74.18
48888;BME280;42598;53.802;-1.632;2023-03-15T04:48:52;100534.09;;;-0.84;70.94
48888;BME280;42598;53.802;-1.632;2023-03-15T04:51:19;100539.38;;;-0.92;70.92
48888;BME280;42598;53.802;-1.632;2023-03-15T04:53:47;100540.47;;;-1.43;71.95
48888;BME280;42598;53.802;-1.632;2023-03-15T04:56:14;100542.31;;;-1.26;73.68
48888;BME280;42598;53.802;-1.632;2023-03-15T04:58:41;100535.36;;;-1.58;74.12
48888;BME280;42598;53.802;-1.632;2023-03-15T05:01:08;100539.90;;;-1.95;74.00
48888;BME280;42598;53.802;-1.632;2023-03-15T05:03:36;100541.85;;;-2.14;75.39
48888;BME280;42598;53.802;-1.632;2023-03-15T05:06:03;100537.91;;;-1.86;77.08
48888;BME280;42598;53.802;-1.632;2023-03-15T05:08:30;100535.33;;;-1.57;77.69
48888;BME280;42598;53.802;-1.632;2023-03-15T05:10:57;100538.04;;;-1.98;74.65
48888;BME280;42598;53.802;-1.632;2023-03-15T05:13:24;100539.70;;;-1.25;74.29
48888;BME280;42598;53.802;-1.632;2023-03-15T05:15:51;100538.15;;;-1.43;74.51
48888;BME280;42598;53.802;-1.632;2023-03-15T05:18:18;100538.19;;;-1.18;71.62
48888;BME280;42598;53.802;-1.632;2023-03-15T05:20:46;100541.10;;;-2.14;76.23
48888;BME280;42598;53.802;-1.632;2023-03-15T05:23:13;100537.70;;;-1.36;74.76
48888;BME280;42598;53.802;-1.632;2023-03-15T05:25:41;100542.76;;;-1.53;74.87
48888;BME280;42598;53.802;-1.632;2023-03-15T05:28:08;100549.10;;;-1.99;76.00
48888;BME280;42598;53.802;-1.632;2023-03-15T05:30:35;100553.04;;;-2.29;77.20
48888;BME280;42598;53.802;-1.632;2023-03-15T05:33:01;100550.49;;;-1.26;75.33
48888;BME280;42598;53.802;-1.632;2023-03-15T05:35:28;100548.70;;;-1.08;74.79
48888;BME280;42598;53.802;-1.632;2023-03-15T05:37:56;100545.70;;;-1.86;75.71
48888;BME280;42598;53.802;-1.632;2023-03-15T05:40:23;100547.81;;;-1.56;75.98
48888;BME280;42598;53.802;-1.632;2023-03-15T05:42:50;100549.30;;;-1.57;75.18
48888;BME280;42598;53.802;-1.632;2023-03-15T05:45:18;100551.32;;;-1.57;75.87
48888;BME280;42598;53.802;-1.632;2023-03-15T05:47:45;100555.30;;;-1.55;77.00
48888;BME280;42598;53.802;-1.632;2023-03-15T05:50:12;100563.51;;;-1.85;77.67
48888;BME280;42598;53.802;-1.632;2023-03-15T05:52:39;100565.14;;;-1.85;77.18
48888;BME280;42598;53.802;-1.632;2023-03-15T05:55:07;100565.45;;;-2.17;77.45
48888;BME280;42598;53.802;-1.632;2023-03-15T05:57:34;100575.92;;;-1.09;74.14
48888;BME280;42598;53.802;-1.632;2023-03-15T06:00:02;100577.92;;;-1.08;71.68
48888;BME280;42598;53.802;-1.632;2023-03-15T06:02:29;100579.77;;;-1.14;70.42
48888;BME280;42598;53.802;-1.632;2023-03-15T06:04:56;100579.79;;;-1.33;73.72
48888;BME280;42598;53.802;-1.632;2023-03-15T06:07:23;100580.71;;;-1.51;74.53
48888;BME280;42598;53.802;-1.632;2023-03-15T06:09:51;100581.84;;;-2.36;74.32
48888;BME280;42598;53.802;-1.632;2023-03-15T06:12:17;100584.42;;;-1.34;71.29
48888;BME280;42598;53.802;-1.632;2023-03-15T06:14:45;100581.61;;;-1.67;74.32
48888;BME280;42598;53.802;-1.632;2023-03-15T06:17:12;100583.71;;;-2.07;74.76
48888;BME280;42598;53.802;-1.632;2023-03-15T06:19:39;100579.40;;;-1.51;71.95
48888;BME280;42598;53.802;-1.632;2023-03-15T06:22:06;100573.05;;;-2.24;73.26
48888;BME280;42598;53.802;-1.632;2023-03-15T06:24:34;100570.91;;;-2.23;75.48
48888;BME280;42598;53.802;-1.632;2023-03-15T06:27:01;100572.64;;;-2.66;75.54
48888;BME280;42598;53.802;-1.632;2023-03-15T06:29:28;100578.47;;;-2.13;72.87
48888;BME280;42598;53.802;-1.632;2023-03-15T06:31:54;100579.72;;;-2.24;75.73
48888;BME280;42598;53.802;-1.632;2023-03-15T06:34:21;100579.06;;;-1.41;72.29
48888;BME280;42598;53.802;-1.632;2023-03-15T06:36:49;100579.21;;;-1.56;72.21
48888;BME280;42598;53.802;-1.632;2023-03-15T06:39:17;100584.08;;;-1.88;71.81
48888;BME280;42598;53.802;-1.632;2023-03-15T06:41:44;100581.38;;;-1.61;71.58
48888;BME280;42598;53.802;-1.632;2023-03-15T06:44:12;100582.22;;;-1.16;72.11
48888;BME280;42598;53.802;-1.632;2023-03-15T06:46:39;100582.63;;;-1.13;70.69
48888;BME280;42598;53.802;-1.632;2023-03-15T06:49:07;100586.57;;;-1.77;75.94
48888;BME280;42598;53.802;-1.632;2023-03-15T06:51:34;100582.59;;;-1.16;73.55
48888;BME280;42598;53.802;-1.632;2023-03-15T06:54:01;100583.90;;;-1.61;72.79
48888;BME280;42598;53.802;-1.632;2023-03-15T06:56:28;100583.97;;;-1.43;72.96
48888;BME280;42598;53.802;-1.632;2023-03-15T06:58:55;100579.76;;;-0.26;71.80
48888;BME280;42598;53.802;-1.632;2023-03-15T07:01:22;100579.16;;;-0.97;71.02
48888;BME280;42598;53.802;-1.632;2023-03-15T07:03:50;100580.22;;;-1.44;71.88
48888;BME280;42598;53.802;-1.632;2023-03-15T07:06:17;100583.14;;;-1.30;73.12
48888;BME280;42598;53.802;-1.632;2023-03-15T07:08:44;100581.73;;;-1.17;73.49
48888;BME280;42598;53.802;-1.632;2023-03-15T07:11:16;100581.63;;;-0.61;72.80
48888;BME280;42598;53.802;-1.632;2023-03-15T07:13:43;100579.57;;;-0.50;71.36
48888;BME280;42598;53.802;-1.632;2023-03-15T07:16:11;100581.71;;;0.05;71.66
48888;BME280;42598;53.802;-1.632;2023-03-15T07:18:39;100580.38;;;0.23;70.31
48888;BME280;42598;53.802;-1.632;2023-03-15T07:21:06;100580.23;;;-0.06;69.24
48888;BME280;42598;53.802;-1.632;2023-03-15T07:23:34;100579.76;;;-0.17;68.86
48888;BME280;42598;53.802;-1.632;2023-03-15T07:26:01;100575.43;;;-0.75;70.48
48888;BME280;42598;53.802;-1.632;2023-03-15T07:28:28;100576.96;;;-0.57;70.25
48888;BME280;42598;53.802;-1.632;2023-03-15T07:30:57;100577.11;;;0.16;71.32
48888;BME280;42598;53.802;-1.632;2023-03-15T07:33:26;100575.11;;;-0.80;73.96
48888;BME280;42598;53.802;-1.632;2023-03-15T07:35:54;100573.57;;;-0.16;75.69
48888;BME280;42598;53.802;-1.632;2023-03-15T07:38:22;100572.39;;;-0.46;77.86
48888;BME280;42598;53.802;-1.632;2023-03-15T07:40:52;100568.88;;;1.08;74.22
48888;BME280;42598;53.802;-1.632;2023-03-15T07:43:20;100571.18;;;0.04;74.36
48888;BME280;42598;53.802;-1.632;2023-03-15T07:45:48;100579.23;;;0.83;75.64
48888;BME280;42598;53.802;-1.632;2023-03-15T07:48:15;100577.06;;;1.31;71.00
